createdAt,value
2018-11-07T00:01:35.214Z,12.20
2018-11-07T00:04:05.231Z,12.27
2018-11-07T00:06:35.296Z,12.23
2018-11-07T00:09:06.479Z,12.07
2018-11-07T00:11:36.394Z,12.07
2018-11-07T00:14:06.508Z,11.20
2018-11-07T00:16:35.835Z,11.93
2018-11-07T00:19:06.365Z,11.80
2018-11-07T00:21:35.901Z,11.40
2018-11-07T00:24:05.847Z,11.33
2018-11-07T00:26:35.457Z,11.97
2018-11-07T00:29:05.155Z,11.30
2018-11-07T00:31:34.533Z,12.10
2018-11-07T00:34:04.318Z,11.77
2018-11-07T00:36:33.739Z,10.80
2018-11-07T00:39:03.362Z,10.53
2018-11-07T00:41:32.773Z,10.63
2018-11-07T00:44:02.069Z,10.63
2018-11-07T00:46:31.807Z,11.57
2018-11-07T00:49:01.547Z,11.27
2018-11-07T00:51:31.182Z,11.77
2018-11-07T00:54:01.331Z,11.30
2018-11-07T00:56:31.094Z,10.63
2018-11-07T00:59:00.968Z,11.67
2018-11-07T01:01:30.475Z,11.10
2018-11-07T01:04:00.384Z,10.67
2018-11-07T01:06:30.119Z,10.20
2018-11-07T01:09:00.174Z,10.00
2018-11-07T01:11:30.027Z,11.43
2018-11-07T01:13:59.607Z,10.67
2018-11-07T01:16:29.149Z,10.90
2018-11-07T01:18:58.418Z,11.27
2018-11-07T01:21:28.160Z,11.13
2018-11-07T01:23:58.084Z,10.63
2018-11-07T01:26:27.800Z,10.77
2018-11-07T01:28:57.440Z,10.80
2018-11-07T01:31:27.491Z,9.93
2018-11-07T01:33:57.165Z,10.70
2018-11-07T01:36:26.783Z,11.53
2018-11-07T01:38:56.297Z,10.43
2018-11-07T01:41:26.651Z,10.97
2018-11-07T01:43:56.546Z,10.93
2018-11-07T01:46:26.011Z,11.47
2018-11-07T01:49:00.465Z,10.00
2018-11-07T01:51:30.201Z,9.87
2018-11-07T01:54:00.466Z,10.23
2018-11-07T01:56:30.460Z,10.70
2018-11-07T01:58:59.894Z,8.97
2018-11-07T02:01:29.771Z,10.00
2018-11-07T02:03:59.627Z,9.57
2018-11-07T02:06:29.146Z,9.97
2018-11-07T02:08:58.576Z,10.30
2018-11-07T02:11:28.318Z,9.13
2018-11-07T02:13:58.582Z,9.20
2018-11-07T02:16:28.112Z,9.57
2018-11-07T02:18:58.626Z,9.10
2018-11-07T02:21:28.099Z,9.70
2018-11-07T02:23:57.911Z,8.83
2018-11-07T02:26:28.211Z,8.60
2018-11-07T02:28:58.390Z,8.67
2018-11-07T02:31:27.744Z,8.57
2018-11-07T02:33:57.822Z,8.50
2018-11-07T02:36:27.168Z,9.10
2018-11-07T02:38:57.224Z,7.97
2018-11-07T02:41:26.691Z,7.73
2018-11-07T02:43:56.529Z,7.90
2018-11-07T02:46:26.231Z,7.60
2018-11-07T02:48:55.781Z,7.30
2018-11-07T02:51:25.617Z,7.27
2018-11-07T02:53:55.207Z,7.30
2018-11-07T02:56:24.836Z,7.47
2018-11-07T02:58:54.788Z,7.30
2018-11-07T03:01:24.059Z,7.10
2018-11-07T03:03:54.035Z,6.90
2018-11-07T03:06:23.518Z,7.17
2018-11-07T03:08:53.436Z,6.80
2018-11-07T03:11:24.004Z,6.83
2018-11-07T03:13:53.419Z,6.80
2018-11-07T03:16:23.306Z,6.77
2018-11-07T03:18:53.580Z,6.47
2018-11-07T03:21:23.433Z,6.80
2018-11-07T03:23:52.894Z,6.80
2018-11-07T03:26:22.528Z,6.43
2018-11-07T03:28:52.546Z,7.10
2018-11-07T03:31:22.041Z,7.00
2018-11-07T03:33:51.282Z,7.07
2018-11-07T03:36:20.627Z,7.00
2018-11-07T03:38:50.316Z,7.17
2018-11-07T03:41:20.490Z,8.20
2018-11-07T03:43:50.287Z,7.70
2018-11-07T03:46:20.952Z,7.90
2018-11-07T03:48:50.239Z,8.00
2018-11-07T03:51:19.734Z,8.47
2018-11-07T03:53:49.196Z,9.20
2018-11-07T03:56:18.723Z,9.23
2018-11-07T03:58:48.819Z,8.70
2018-11-07T04:01:19.102Z,9.17
2018-11-07T04:03:48.665Z,9.43
2018-11-07T04:06:18.353Z,9.00
2018-11-07T04:08:47.887Z,9.40
2018-11-07T04:11:17.986Z,8.70
2018-11-07T04:13:47.550Z,8.83
2018-11-07T04:16:17.190Z,7.67
2018-11-07T04:18:46.780Z,7.70
2018-11-07T04:21:16.486Z,7.47
2018-11-07T04:24:04.081Z,6.43
2018-11-07T04:26:34.935Z,6.87
2018-11-07T04:29:04.935Z,6.33
2018-11-07T04:31:34.942Z,6.50
2018-11-07T04:34:04.493Z,5.93
2018-11-07T04:36:34.718Z,6.40
2018-11-07T04:39:05.073Z,6.40
2018-11-07T04:41:34.797Z,6.77
2018-11-07T04:44:04.126Z,6.23
2018-11-07T04:46:34.437Z,6.10
2018-11-07T04:49:04.436Z,6.13
2018-11-07T04:51:34.731Z,6.50
2018-11-07T04:54:04.825Z,6.80
2018-11-07T04:56:34.307Z,6.60
2018-11-07T04:59:03.802Z,6.93
2018-11-07T05:01:33.137Z,5.70
2018-11-07T05:04:02.824Z,6.53
2018-11-07T05:06:32.939Z,6.70
2018-11-07T05:09:02.251Z,6.70
2018-11-07T05:11:32.186Z,6.80
2018-11-07T05:14:01.637Z,6.60
2018-11-07T05:16:31.349Z,6.47
2018-11-07T05:19:00.582Z,6.37
2018-11-07T05:21:30.174Z,6.70
2018-11-07T05:24:00.651Z,6.70
2018-11-07T05:26:30.781Z,6.50
2018-11-07T05:29:00.485Z,5.77
2018-11-07T05:31:30.127Z,5.80
2018-11-07T05:33:59.829Z,5.60
2018-11-07T05:36:29.423Z,5.53
2018-11-07T05:38:59.836Z,5.60
2018-11-07T05:41:29.526Z,5.20
2018-11-07T05:43:59.470Z,5.20
2018-11-07T05:46:28.890Z,5.27
2018-11-07T05:48:58.634Z,5.17
2018-11-07T05:51:28.943Z,5.33
2018-11-07T05:53:58.880Z,4.73
2018-11-07T05:56:28.521Z,4.70
2018-11-07T05:58:58.561Z,5.03
2018-11-07T06:01:27.992Z,4.97
2018-11-07T06:03:57.452Z,4.80
2018-11-07T06:06:28.254Z,5.00
2018-11-07T06:08:57.714Z,4.37
2018-11-07T06:11:27.047Z,4.83
2018-11-07T06:13:56.516Z,4.70
2018-11-07T06:16:26.036Z,4.30
2018-11-07T06:18:55.798Z,4.90
2018-11-07T06:21:26.495Z,5.00
2018-11-07T06:23:55.768Z,4.90
2018-11-07T06:26:25.279Z,4.30
2018-11-07T06:28:55.016Z,6.13
2018-11-07T06:31:25.131Z,4.57
2018-11-07T06:33:55.127Z,4.43
2018-11-07T06:36:25.641Z,4.40
2018-11-07T06:38:55.515Z,4.23
2018-11-07T06:41:26.011Z,6.40
2018-11-07T06:43:56.039Z,6.90
2018-11-07T06:46:25.659Z,5.50
2018-11-07T06:48:55.502Z,7.87
2018-11-07T06:51:25.740Z,6.50
2018-11-07T06:53:55.508Z,7.43
2018-11-07T06:56:25.027Z,8.67
2018-11-07T06:58:54.778Z,7.20
2018-11-07T07:01:24.620Z,5.53
2018-11-07T07:03:53.969Z,7.87
2018-11-07T07:06:23.923Z,7.40
2018-11-07T07:08:53.182Z,8.03
2018-11-07T07:11:23.174Z,8.73
2018-11-07T07:13:52.521Z,5.87
2018-11-07T07:16:23.247Z,6.20
2018-11-07T07:18:52.705Z,4.27
2018-11-07T07:21:22.829Z,4.47
2018-11-07T07:23:52.502Z,5.90
2018-11-07T07:26:22.736Z,4.97
2018-11-07T07:28:52.569Z,4.33
2018-11-07T07:31:22.081Z,4.37
2018-11-07T07:33:52.503Z,4.07
2018-11-07T07:36:22.398Z,5.27
2018-11-07T07:38:52.854Z,4.27
2018-11-07T07:41:24.228Z,3.77
2018-11-07T07:43:53.890Z,4.27
2018-11-07T07:46:23.620Z,3.90
2018-11-07T07:48:53.493Z,3.73
2018-11-07T07:51:23.230Z,4.07
2018-11-07T07:53:52.612Z,4.50
2018-11-07T07:56:22.241Z,4.20
2018-11-07T07:58:52.351Z,3.87
2018-11-07T08:01:22.176Z,3.70
2018-11-07T08:03:51.744Z,3.63
2018-11-07T08:06:22.203Z,3.30
2018-11-07T08:08:52.375Z,3.27
2018-11-07T08:11:21.918Z,3.73
2018-11-07T08:13:51.451Z,3.60
2018-11-07T08:16:21.845Z,3.40
2018-11-07T08:18:51.885Z,3.40
2018-11-07T08:21:21.489Z,3.40
2018-11-07T08:23:51.655Z,3.37
2018-11-07T08:26:21.505Z,3.47
2018-11-07T08:28:51.797Z,12.63
2018-11-07T08:31:21.887Z,4.43
2018-11-07T08:33:51.491Z,3.20
2018-11-07T08:36:21.036Z,3.00
2018-11-07T08:38:50.727Z,3.20
2018-11-07T08:41:20.722Z,3.00
2018-11-07T08:43:50.570Z,3.20
2018-11-07T08:46:21.176Z,3.20
2018-11-07T08:48:50.795Z,3.40
2018-11-07T08:51:20.353Z,3.10
2018-11-07T08:53:49.844Z,3.23
2018-11-07T08:56:19.131Z,3.00
2018-11-07T08:58:48.842Z,2.80
2018-11-07T09:01:18.469Z,2.90
2018-11-07T09:03:48.235Z,2.77
2018-11-07T09:06:18.106Z,2.20
2018-11-07T09:08:48.139Z,2.37
2018-11-07T09:11:17.355Z,2.00
2018-11-07T09:13:46.878Z,2.17
2018-11-07T09:16:16.370Z,1.90
2018-11-07T09:18:46.241Z,1.70
2018-11-07T09:21:16.207Z,2.00
2018-11-07T09:23:45.766Z,1.90
2018-11-07T09:26:15.603Z,1.90
2018-11-07T09:28:45.739Z,1.93
2018-11-07T09:31:16.071Z,1.77
2018-11-07T09:33:46.309Z,1.90
2018-11-07T09:36:16.237Z,1.93
2018-11-07T09:38:46.806Z,1.70
2018-11-07T09:41:16.740Z,1.70
2018-11-07T09:43:46.903Z,1.80
2018-11-07T09:46:16.376Z,2.00
2018-11-07T09:48:46.471Z,1.97
2018-11-07T09:51:16.287Z,1.70
2018-11-07T09:53:45.729Z,1.83
2018-11-07T09:56:15.621Z,2.10
2018-11-07T09:58:45.993Z,1.80
2018-11-07T10:01:15.464Z,2.10
2018-11-07T10:03:44.984Z,1.70
2018-11-07T10:06:15.106Z,2.07
2018-11-07T10:08:44.747Z,1.90
2018-11-07T10:11:13.998Z,1.90
2018-11-07T10:13:43.459Z,1.70
2018-11-07T10:16:13.976Z,2.03
2018-11-07T10:18:44.030Z,1.90
2018-11-07T10:21:13.745Z,2.10
2018-11-07T10:23:43.006Z,1.80
2018-11-07T10:26:12.297Z,1.50
2018-11-07T10:28:42.247Z,10.33
2018-11-07T10:31:12.140Z,1.53
2018-11-07T10:33:42.550Z,1.63
2018-11-07T10:36:12.686Z,1.90
2018-11-07T10:38:42.154Z,1.40
2018-11-07T10:41:11.994Z,1.50
2018-11-07T10:43:41.808Z,1.40
2018-11-07T10:46:11.323Z,1.50
2018-11-07T10:48:41.229Z,1.80
2018-11-07T10:51:10.686Z,1.40
2018-11-07T10:53:41.215Z,1.50
2018-11-07T10:56:12.195Z,1.60
2018-11-07T10:58:42.068Z,1.50
2018-11-07T11:01:16.663Z,1.27
2018-11-07T11:03:46.215Z,1.47
2018-11-07T11:06:15.723Z,1.20
2018-11-07T11:08:45.211Z,1.70
2018-11-07T11:11:15.344Z,1.17
2018-11-07T11:13:45.075Z,1.50
2018-11-07T11:16:14.578Z,1.37
2018-11-07T11:18:44.932Z,1.50
2018-11-07T11:21:14.967Z,1.67
2018-11-07T11:23:45.186Z,1.60
2018-11-07T11:26:15.396Z,1.33
2018-11-07T11:28:45.931Z,1.53
2018-11-07T11:31:17.216Z,1.90
2018-11-07T11:33:47.752Z,1.77
2018-11-07T11:36:16.923Z,1.40
2018-11-07T11:38:46.457Z,1.40
2018-11-07T11:41:16.120Z,13.73
2018-11-07T11:43:45.856Z,1.63
2018-11-07T11:46:16.000Z,1.73
2018-11-07T11:48:45.920Z,1.70
2018-11-07T11:51:15.492Z,3.67
2018-11-07T11:53:45.669Z,2.20
2018-11-07T11:56:15.048Z,1.63
2018-11-07T11:58:45.356Z,1.80
2018-11-07T12:01:15.286Z,1.90
2018-11-07T12:03:46.028Z,1.47
2018-11-07T12:06:15.974Z,1.50
2018-11-07T12:08:46.039Z,1.30
2018-11-07T12:11:16.146Z,1.60
2018-11-07T12:13:46.351Z,1.30
2018-11-07T12:16:15.637Z,1.43
2018-11-07T12:18:45.993Z,1.53
2018-11-07T12:21:16.283Z,1.60
2018-11-07T12:23:47.014Z,1.50
2018-11-07T12:26:16.587Z,1.67
2018-11-07T12:28:46.516Z,1.33
2018-11-07T12:31:16.345Z,1.50
2018-11-07T12:33:46.204Z,1.47
2018-11-07T12:36:16.272Z,1.33
2018-11-07T12:38:48.084Z,1.47
2018-11-07T12:41:18.639Z,1.47
2018-11-07T12:43:48.818Z,1.73
2018-11-07T12:46:18.890Z,1.53
2018-11-07T12:48:48.881Z,1.40
2018-11-07T12:51:18.507Z,1.60
2018-11-07T12:53:48.752Z,1.30
2018-11-07T12:56:18.639Z,1.43
2018-11-07T12:58:49.311Z,2.47
2018-11-07T13:01:18.774Z,3.00
2018-11-07T13:03:48.620Z,3.27
2018-11-07T13:06:18.023Z,1.40
2018-11-07T13:08:47.881Z,1.90
2018-11-07T13:11:18.096Z,1.67
2018-11-07T13:13:48.131Z,1.77
2018-11-07T13:16:18.376Z,1.70
2018-11-07T13:18:47.942Z,1.63
2018-11-07T13:21:17.483Z,1.60
2018-11-07T13:23:47.181Z,1.80
2018-11-07T13:26:16.650Z,1.87
2018-11-07T13:28:46.245Z,1.90
2018-11-07T13:31:15.900Z,2.17
2018-11-07T13:33:46.210Z,1.60
2018-11-07T13:36:15.712Z,1.37
2018-11-07T13:38:45.703Z,1.37
2018-11-07T13:41:14.824Z,1.80
2018-11-07T13:43:44.634Z,1.30
2018-11-07T13:46:15.128Z,1.10
2018-11-07T13:48:44.658Z,1.60
2018-11-07T13:51:15.646Z,4.20
2018-11-07T13:53:45.251Z,1.70
2018-11-07T13:56:15.010Z,1.50
2018-11-07T13:58:44.509Z,1.70
2018-11-07T14:01:14.229Z,1.50
2018-11-07T14:03:43.699Z,1.47
2018-11-07T14:06:12.985Z,2.13
2018-11-07T14:08:42.529Z,2.47
2018-11-07T14:11:12.086Z,2.10
2018-11-07T14:13:42.207Z,1.60
2018-11-07T14:16:12.136Z,1.90
2018-11-07T14:18:41.592Z,1.60
2018-11-07T14:21:10.895Z,1.60
2018-11-07T14:23:40.397Z,2.17
2018-11-07T14:26:09.991Z,1.93
2018-11-07T14:28:39.732Z,1.90
2018-11-07T14:31:09.588Z,2.13
2018-11-07T14:33:39.046Z,2.07
2018-11-07T14:36:09.176Z,2.00
2018-11-07T14:38:39.348Z,1.70
2018-11-07T14:41:09.341Z,1.73
2018-11-07T14:43:38.882Z,2.07
2018-11-07T14:46:09.249Z,1.60
2018-11-07T14:48:41.111Z,1.97
2018-11-07T14:51:10.652Z,1.97
2018-11-07T14:53:41.535Z,2.00
2018-11-07T14:56:10.907Z,1.90
2018-11-07T14:58:40.903Z,1.70
2018-11-07T15:01:10.107Z,1.70
2018-11-07T15:03:39.823Z,1.83
2018-11-07T15:06:10.754Z,2.10
2018-11-07T15:08:40.917Z,2.10
2018-11-07T15:11:11.229Z,1.77
2018-11-07T15:13:40.976Z,1.97
2018-11-07T15:16:10.429Z,2.10
2018-11-07T15:18:39.948Z,1.70
2018-11-07T15:21:09.431Z,2.00
2018-11-07T15:23:38.940Z,1.90
2018-11-07T15:26:08.433Z,1.80
2018-11-07T15:28:38.464Z,1.60
2018-11-07T15:31:07.888Z,1.90
2018-11-07T15:33:37.378Z,2.00
2018-11-07T15:36:07.129Z,2.30
2018-11-07T15:38:36.807Z,1.80
2018-11-07T15:41:07.716Z,2.40
2018-11-07T15:43:37.838Z,2.20
2018-11-07T15:46:08.149Z,1.83
2018-11-07T15:48:37.956Z,2.30
2018-11-07T15:51:14.203Z,2.10
2018-11-07T15:53:44.517Z,1.80
2018-11-07T15:56:14.219Z,2.10
2018-11-07T15:58:44.116Z,1.70
2018-11-07T16:01:14.035Z,2.20
2018-11-07T16:03:49.252Z,2.07
2018-11-07T16:06:20.436Z,1.87
2018-11-07T16:08:50.134Z,2.07
2018-11-07T16:11:19.811Z,1.90
2018-11-07T16:13:49.620Z,2.83
2018-11-07T16:16:23.554Z,2.00
2018-11-07T16:18:53.346Z,1.97
2018-11-07T16:21:23.356Z,2.13
2018-11-07T16:23:54.169Z,1.80
2018-11-07T16:26:23.857Z,1.73
2018-11-07T16:28:54.034Z,2.10
2018-11-07T16:31:23.478Z,1.87
2018-11-07T16:33:53.163Z,1.77
2018-11-07T16:36:22.679Z,2.10
2018-11-07T16:38:52.206Z,1.90
2018-11-07T16:41:21.846Z,1.97
2018-11-07T16:43:51.646Z,1.60
2018-11-07T16:46:21.902Z,1.90
2018-11-07T16:48:51.478Z,2.30
2018-11-07T16:51:20.962Z,1.80
2018-11-07T16:53:50.232Z,2.00
2018-11-07T16:56:19.768Z,1.90
2018-11-07T16:58:49.650Z,2.07
2018-11-07T17:01:19.798Z,1.97
2018-11-07T17:03:49.658Z,1.87
2018-11-07T17:06:19.256Z,1.70
2018-11-07T17:08:48.959Z,1.80
2018-11-07T17:11:18.612Z,1.47
2018-11-07T17:13:48.710Z,1.77
2018-11-07T17:16:19.264Z,1.47
2018-11-07T17:18:48.910Z,1.50
2018-11-07T17:21:18.470Z,1.40
2018-11-07T17:23:47.992Z,1.20
2018-11-07T17:26:18.118Z,1.70
2018-11-07T17:28:48.205Z,1.43
2018-11-07T17:31:18.392Z,1.57
2018-11-07T17:33:48.055Z,1.40
2018-11-07T17:36:17.372Z,1.90
2018-11-07T17:38:46.808Z,1.70
2018-11-07T17:41:17.157Z,1.50
2018-11-07T17:43:46.705Z,1.37
2018-11-07T17:46:17.656Z,1.73
2018-11-07T17:48:46.926Z,1.50
2018-11-07T17:51:17.034Z,1.33
2018-11-07T17:53:46.310Z,5.53
2018-11-07T17:56:16.469Z,1.60
2018-11-07T17:58:46.411Z,1.60
2018-11-07T18:01:16.367Z,1.93
2018-11-07T18:03:46.168Z,1.90
2018-11-07T18:06:16.285Z,1.80
2018-11-07T18:08:46.002Z,2.03
2018-11-07T18:11:15.572Z,2.30
2018-11-07T18:13:45.157Z,1.67
2018-11-07T18:16:14.681Z,2.00
2018-11-07T18:18:45.324Z,1.67
2018-11-07T18:21:14.608Z,1.70
2018-11-07T18:23:44.070Z,1.83
2018-11-07T18:26:13.899Z,1.93
2018-11-07T18:28:43.270Z,2.00
2018-11-07T18:31:13.322Z,1.60
2018-11-07T18:33:43.498Z,1.90
2018-11-07T18:36:13.806Z,1.63
2018-11-07T18:38:43.298Z,1.70
2018-11-07T18:41:13.420Z,2.03
2018-11-07T18:43:43.232Z,1.80
2018-11-07T18:46:12.529Z,1.73
2018-11-07T18:48:42.191Z,1.97
2018-11-07T18:51:12.019Z,2.00
2018-11-07T18:53:41.414Z,2.33
2018-11-07T18:56:11.979Z,2.07
2018-11-07T18:58:41.872Z,1.70
2018-11-07T19:01:11.370Z,2.00
2018-11-07T19:03:40.891Z,1.47
2018-11-07T19:06:10.397Z,1.70
2018-11-07T19:08:40.108Z,1.30
2018-11-07T19:11:09.635Z,1.80
2018-11-07T19:13:39.075Z,1.70
2018-11-07T19:16:08.847Z,1.77
2018-11-07T19:18:39.751Z,1.77
2018-11-07T19:21:09.680Z,1.70
2018-11-07T19:23:39.192Z,1.73
2018-11-07T19:26:09.255Z,1.43
2018-11-07T19:28:38.891Z,1.80
2018-11-07T19:31:08.276Z,1.80
2018-11-07T19:33:37.779Z,1.67
2018-11-07T19:36:07.887Z,1.87
2018-11-07T19:38:37.843Z,1.53
2018-11-07T19:41:07.307Z,1.90
2018-11-07T19:43:36.602Z,1.73
2018-11-07T19:46:06.559Z,2.10
2018-11-07T19:48:36.053Z,1.87
2018-11-07T19:51:12.327Z,1.93
2018-11-07T19:53:42.046Z,1.50
2018-11-07T19:56:11.284Z,2.00
2018-11-07T19:58:41.039Z,1.80
2018-11-07T20:01:10.766Z,1.73
2018-11-07T20:03:40.060Z,1.70
2018-11-07T20:06:09.587Z,1.70
2018-11-07T20:08:39.273Z,2.00
2018-11-07T20:11:08.602Z,1.90
2018-11-07T20:13:38.060Z,1.70
2018-11-07T20:16:08.115Z,2.03
2018-11-07T20:18:38.401Z,1.90
2018-11-07T20:21:07.627Z,1.50
2018-11-07T20:23:37.498Z,1.70
2018-11-07T20:26:06.879Z,2.00
2018-11-07T20:28:37.239Z,2.43
2018-11-07T20:31:07.347Z,1.83
2018-11-07T20:33:38.475Z,1.63
2018-11-07T20:36:07.787Z,1.70
2018-11-07T20:38:37.838Z,1.80
2018-11-07T20:41:07.314Z,1.50
2018-11-07T20:43:37.080Z,1.67
2018-11-07T20:46:06.398Z,1.80
2018-11-07T20:48:35.668Z,1.80
2018-11-07T20:51:05.407Z,1.70
2018-11-07T20:53:35.312Z,1.57
2018-11-07T20:56:05.805Z,1.73
2018-11-07T20:58:35.349Z,1.67
2018-11-07T21:01:04.816Z,1.63
2018-11-07T21:03:34.087Z,1.47
2018-11-07T21:06:04.249Z,1.87
2018-11-07T21:08:34.147Z,1.93
2018-11-07T21:11:03.682Z,1.80
2018-11-07T21:13:33.969Z,2.10
2018-11-07T21:16:03.797Z,2.20
2018-11-07T21:18:33.602Z,2.10
2018-11-07T21:21:03.727Z,1.67
2018-11-07T21:23:34.676Z,2.07
2018-11-07T21:26:04.331Z,1.60
2018-11-07T21:28:34.285Z,1.93
2018-11-07T21:31:04.250Z,1.63
2018-11-07T21:33:35.280Z,1.90
2018-11-07T21:36:05.026Z,1.77
2018-11-07T21:38:34.811Z,1.70
2018-11-07T21:41:05.098Z,2.00
2018-11-07T21:43:35.436Z,2.00
2018-11-07T21:46:05.553Z,1.67
2018-11-07T21:48:34.855Z,1.60
2018-11-07T21:51:04.985Z,1.80
2018-11-07T21:53:35.266Z,1.90
2018-11-07T21:56:05.146Z,1.93
2018-11-07T21:58:35.137Z,2.00
2018-11-07T22:01:05.830Z,1.70
2018-11-07T22:03:36.095Z,1.70
2018-11-07T22:06:06.011Z,1.97
2018-11-07T22:08:36.285Z,2.10
2018-11-07T22:11:05.578Z,2.20
2018-11-07T22:13:35.843Z,2.10
2018-11-07T22:16:05.874Z,2.00
2018-11-07T22:18:35.847Z,2.20
2018-11-07T22:21:05.764Z,2.00
2018-11-07T22:23:35.848Z,2.30
2018-11-07T22:26:05.833Z,1.50
2018-11-07T22:28:35.940Z,2.00
2018-11-07T22:31:05.967Z,2.27
2018-11-07T22:33:35.611Z,2.07
2018-11-07T22:36:05.521Z,2.30
2018-11-07T22:38:35.137Z,2.33
2018-11-07T22:41:04.893Z,2.30
2018-11-07T22:43:34.680Z,2.10
2018-11-07T22:46:04.540Z,1.80
2018-11-07T22:48:34.362Z,2.20
2018-11-07T22:51:03.667Z,2.67
2018-11-07T22:53:33.998Z,1.90
2018-11-07T22:56:04.339Z,2.10
2018-11-07T22:58:34.264Z,2.03
2018-11-07T23:01:08.927Z,2.40
2018-11-07T23:03:39.002Z,2.20
2018-11-07T23:06:08.807Z,2.20
2018-11-07T23:08:38.752Z,2.10
2018-11-07T23:11:08.040Z,2.23
2018-11-07T23:13:37.991Z,2.30
2018-11-07T23:16:08.776Z,2.33
2018-11-07T23:18:38.678Z,2.10
2018-11-07T23:21:07.979Z,2.27
2018-11-07T23:23:37.511Z,2.10
2018-11-07T23:26:06.841Z,2.00
2018-11-07T23:28:36.769Z,2.73
2018-11-07T23:31:07.182Z,2.30
2018-11-07T23:33:37.386Z,2.37
2018-11-07T23:36:07.187Z,2.30
2018-11-07T23:38:37.327Z,2.10
2018-11-07T23:41:07.539Z,2.27
2018-11-07T23:43:36.994Z,2.60
2018-11-07T23:46:06.639Z,2.53
2018-11-07T23:48:36.007Z,2.40
2018-11-07T23:51:05.946Z,2.40
2018-11-07T23:53:35.600Z,2.50
2018-11-07T23:56:05.361Z,2.70
2018-11-07T23:58:35.495Z,2.20
